Time;durP1;ratioP1;P1;durP2;ratioP2;P2;SDS_P1;SDS_P2;PMS_P1;PMS_P2;Temp;Humidity;BMP_temperature;BMP_pressure;BME280_temperature;BME280_humidity;BME280_pressure;Samples;Min_cycle;Max_cycle;Signal;HPM_P1;HPM_P2
2020/12/25 00:00:41;;;;;;;21.10;14.73;;;;;;;4.04;100.00;96206.81;5016578;28;20672;-90
2020/12/25 00:03:08;;;;;;;20.83;14.93;;;;;;;4.06;100.00;96209.31;5016050;28;20273;-91
2020/12/25 00:05:36;;;;;;;20.47;14.77;;;;;;;3.99;100.00;96205.53;5015983;28;20234;-90
2020/12/25 00:08:03;;;;;;;21.77;13.63;;;;;;;3.98;100.00;96209.91;5016088;28;20219;-90
2020/12/25 00:10:30;;;;;;;16.97;13.70;;;;;;;3.93;100.00;96209.44;5016525;28;20245;-90
2020/12/25 00:12:57;;;;;;;18.87;14.57;;;;;;;4.05;100.00;96212.84;5016183;28;20297;-90
2020/12/25 00:15:23;;;;;;;18.70;13.63;;;;;;;4.25;100.00;96208.69;5015946;28;20198;-92
2020/12/25 00:17:50;;;;;;;16.87;13.47;;;;;;;4.24;100.00;96207.03;5015908;28;20261;-92
2020/12/25 00:20:17;;;;;;;16.73;12.53;;;;;;;4.11;100.00;96209.75;5016095;28;20200;-91
2020/12/25 00:22:45;;;;;;;17.10;13.27;;;;;;;4.09;100.00;96213.41;5015715;28;20195;-90
2020/12/25 00:25:12;;;;;;;16.23;13.20;;;;;;;4.13;100.00;96210.47;5015895;28;20286;-90
2020/12/25 00:27:39;;;;;;;16.93;13.80;;;;;;;4.09;100.00;96211.69;5015740;28;20696;-93
2020/12/25 00:30:06;;;;;;;20.27;14.70;;;;;;;4.03;100.00;96212.16;5015857;28;20611;-94
2020/12/25 00:32:32;;;;;;;18.60;15.13;;;;;;;4.25;100.00;96213.88;5015327;28;20235;-94
2020/12/25 00:34:59;;;;;;;18.33;14.97;;;;;;;4.18;100.00;96212.72;5015354;28;20199;-94
2020/12/25 00:37:26;;;;;;;20.60;13.33;;;;;;;4.14;100.00;96211.31;5015238;28;20208;-92
2020/12/25 00:39:54;;;;;;;18.03;14.40;;;;;;;4.11;100.00;96208.94;5014912;28;20195;-91
2020/12/25 00:42:21;;;;;;;19.30;14.43;;;;;;;4.10;100.00;96200.31;5014167;28;20203;-92
2020/12/25 00:44:48;;;;;;;17.83;14.67;;;;;;;4.12;100.00;96207.97;5014389;28;20191;-90
2020/12/25 00:47:14;;;;;;;21.87;16.43;;;;;;;4.31;100.00;96200.41;5015539;28;20265;-90
2020/12/25 00:49:41;;;;;;;19.30;15.23;;;;;;;4.02;100.00;96198.31;5015235;28;20231;-91
2020/12/25 00:52:08;;;;;;;19.80;16.47;;;;;;;3.98;100.00;96202.13;5015050;28;20211;-90
2020/12/25 00:54:35;;;;;;;20.43;15.87;;;;;;;4.12;100.00;96207.97;5015444;28;20724;-96
2020/12/25 00:57:03;;;;;;;19.40;15.07;;;;;;;4.03;100.00;96212.97;5016274;28;20253;-89
2020/12/25 00:59:30;;;;;;;22.20;16.77;;;;;;;4.10;100.00;96215.91;5014606;28;20290;-92
2020/12/25 01:01:57;;;;;;;20.40;15.87;;;;;;;4.12;100.00;96221.00;5014922;28;20207;-93
2020/12/25 01:04:23;;;;;;;21.37;15.93;;;;;;;4.13;100.00;96215.69;5014849;28;20195;-93
2020/12/25 01:06:50;;;;;;;19.97;15.60;;;;;;;4.18;100.00;96212.72;5014946;28;20223;-93
2020/12/25 01:09:17;;;;;;;16.97;14.03;;;;;;;3.95;100.00;96204.09;5014831;28;20695;-95
2020/12/25 01:11:44;;;;;;;18.23;13.97;;;;;;;3.81;100.00;96200.81;5015143;28;20262;-93
2020/12/25 01:14:12;;;;;;;20.87;13.10;;;;;;;3.67;100.00;96202.81;5015171;28;20195;-94
2020/12/25 01:16:39;;;;;;;20.20;13.30;;;;;;;3.54;100.00;96206.34;5014875;28;20329;-94
2020/12/25 01:19:05;;;;;;;17.13;13.93;;;;;;;3.48;100.00;96204.22;5014511;28;20286;-93
2020/12/25 01:21:32;;;;;;;20.50;14.40;;;;;;;3.50;100.00;96197.16;5014616;28;20211;-93
2020/12/25 01:23:59;;;;;;;15.93;12.60;;;;;;;3.47;100.00;96201.75;5014644;28;20203;-93
2020/12/25 01:26:26;;;;;;;19.50;13.93;;;;;;;3.43;100.00;96206.34;5014806;28;20254;-94
2020/12/25 01:28:55;;;;;;;18.90;14.17;;;;;;;3.42;100.00;96202.06;5013950;28;20294;-94
2020/12/25 01:31:22;;;;;;;19.43;13.23;;;;;;;3.67;100.00;96193.25;5014487;28;20204;-93
2020/12/25 01:33:49;;;;;;;17.00;14.10;;;;;;;3.67;100.00;96193.25;5014563;28;20627;-93
2020/12/25 01:36:16;;;;;;;16.83;13.03;;;;;;;3.80;100.00;96195.72;5014339;28;20195;-87
2020/12/25 01:38:43;;;;;;;16.83;13.87;;;;;;;3.88;100.00;96195.97;5013584;28;20191;-87
2020/12/25 01:41:10;;;;;;;16.13;13.03;;;;;;;3.92;100.00;96192.19;5013820;28;20660;-86
2020/12/25 01:43:37;;;;;;;17.03;12.30;;;;;;;3.88;100.00;96184.72;5013713;28;20672;-87
2020/12/25 01:46:04;;;;;;;20.57;14.10;;;;;;;3.56;100.00;96175.88;5014101;28;20238;-87
2020/12/25 01:48:33;;;;;;;27.73;22.37;;;;;;;3.58;100.00;96178.38;5013621;28;20254;-90
2020/12/25 01:51:00;;;;;;;37.90;31.37;;;;;;;3.47;100.00;96165.38;5013239;28;20286;-90
2020/12/25 01:53:29;;;;;;;23.80;17.93;;;;;;;3.53;100.00;96162.28;5014047;28;20195;-90
2020/12/25 01:55:58;;;;;;;20.10;16.63;;;;;;;3.58;100.00;96166.19;5013993;28;20247;-90
2020/12/25 01:58:26;;;;;;;19.80;16.47;;;;;;;3.62;100.00;96163.38;5014002;28;20195;-91
2020/12/25 02:00:56;;;;;;;20.87;15.57;;;;;;;3.70;100.00;96159.22;5013544;28;20200;-93
2020/12/25 02:03:25;;;;;;;23.07;14.77;;;;;;;3.55;100.00;96163.81;5013487;28;20230;-93
2020/12/25 02:08:50;;;;;;;20.33;15.13;;;;;;;3.47;100.00;96153.22;5013510;28;20732;-89
2020/12/25 02:11:19;;;;;;;24.13;15.37;;;;;;;3.40;100.00;96162.41;5013579;28;20691;-89
2020/12/25 02:13:48;;;;;;;25.40;15.77;;;;;;;3.50;100.00;96168.56;5013435;28;20203;-89
2020/12/25 02:16:17;;;;;;;21.80;15.27;;;;;;;3.52;100.00;96169.25;5012984;28;20747;-90
2020/12/25 02:18:45;;;;;;;19.93;14.60;;;;;;;3.33;100.00;96169.03;5013098;28;20209;-90
2020/12/25 02:21:26;;;;;;;25.40;16.17;;;;;;;3.45;100.00;96172.44;5013206;28;20207;-90
2020/12/25 02:29:31;;;;;;;16.20;11.20;;;;;;;3.16;100.00;96166.88;5012429;28;20632;-90
2020/12/25 02:32:02;;;;;;;16.50;12.43;;;;;;;3.36;100.00;96163.59;4996197;28;20195;-90
2020/12/25 02:34:29;;;;;;;20.90;13.33;;;;;;;3.36;100.00;96162.75;5012126;28;20206;-88
2020/12/25 02:36:57;;;;;;;17.63;13.17;;;;;;;3.11;100.00;96154.22;5013174;28;20202;-88
2020/12/25 02:39:23;;;;;;;19.97;15.07;;;;;;;3.04;100.00;96146.06;5013047;28;20238;-90
2020/12/25 02:41:50;;;;;;;17.30;13.43;;;;;;;3.19;100.00;96151.88;5013164;28;20693;-88
2020/12/25 02:44:17;;;;;;;15.50;13.50;;;;;;;3.31;100.00;96145.75;5013115;28;20298;-88
2020/12/25 02:46:44;;;;;;;15.73;13.13;;;;;;;3.46;100.00;96148.94;5013011;28;20224;-88
2020/12/25 02:49:11;;;;;;;19.97;14.63;;;;;;;3.03;100.00;96157.38;5012757;28;20199;-88
2020/12/25 02:51:38;;;;;;;26.73;18.47;;;;;;;3.06;100.00;96161.53;5013021;28;20202;-88
2020/12/25 02:54:05;;;;;;;19.87;14.00;;;;;;;3.02;100.00;96154.94;5013335;28;20570;-88
2020/12/25 02:56:32;;;;;;;18.43;14.33;;;;;;;3.10;100.00;96148.19;5013614;28;20200;-90
2020/12/25 02:58:59;;;;;;;18.37;14.10;;;;;;;2.97;100.00;96147.47;5013180;28;20230;-89
2020/12/25 03:01:26;;;;;;;29.90;14.10;;;;;;;2.97;100.00;96147.47;5014479;28;20574;-89
2020/12/25 03:03:53;;;;;;;27.03;15.00;;;;;;;3.27;100.00;96159.91;5019400;28;20250;-89
2020/12/25 03:06:20;;;;;;;23.23;14.33;;;;;;;3.23;100.00;96165.47;5019850;28;20253;-91
2020/12/25 03:08:46;;;;;;;21.87;13.33;;;;;;;3.27;100.00;96174.69;5019918;28;20603;-89
2020/12/25 03:11:14;;;;;;;20.73;12.70;;;;;;;3.27;100.00;96159.09;5019732;28;20211;-92
2020/12/25 03:13:41;;;;;;;20.43;13.20;;;;;;;3.01;100.00;96156.69;5019517;28;20286;-90
2020/12/25 03:16:08;;;;;;;16.73;12.87;;;;;;;3.13;100.00;96173.13;5019641;28;20235;-90
2020/12/25 03:18:35;;;;;;;21.80;15.23;;;;;;;3.25;100.00;96166.97;5019346;28;20199;-90
2020/12/25 03:21:01;;;;;;;61.43;14.57;;;;;;;3.02;100.00;96149.72;5019864;28;20199;-91
2020/12/25 03:23:28;;;;;;;72.10;15.67;;;;;;;2.99;100.00;96149.97;5019246;28;20293;-92
2020/12/25 03:25:55;;;;;;;50.27;14.50;;;;;;;3.01;100.00;96156.69;5019506;28;20554;-89
2020/12/25 03:28:23;;;;;;;16.93;12.77;;;;;;;3.04;100.00;96153.84;5019084;28;20223;-89
2020/12/25 03:30:50;;;;;;;18.40;13.40;;;;;;;3.21;100.00;96159.53;5019096;28;20226;-90
2020/12/25 03:33:16;;;;;;;14.20;11.80;;;;;;;3.18;100.00;96164.97;5019280;28;20218;-90
2020/12/25 03:35:43;;;;;;;17.53;12.10;;;;;;;3.22;100.00;96164.66;5019028;28;20235;-88
2020/12/25 03:38:10;;;;;;;16.13;13.10;;;;;;;3.32;100.00;96175.13;5019270;28;20664;-89
2020/12/25 03:40:37;;;;;;;20.30;14.27;;;;;;;3.29;100.00;96173.63;5019087;28;20588;-88
2020/12/25 03:43:03;;;;;;;23.30;16.27;;;;;;;3.33;100.00;96169.03;5019346;28;20231;-89
2020/12/25 03:45:32;;;;;;;24.10;17.40;;;;;;;3.18;100.00;96170.97;5018964;28;20210;-89
2020/12/25 03:48:00;;;;;;;23.87;16.77;;;;;;;3.18;100.00;96177.94;5018906;28;20223;-88
2020/12/25 03:50:27;;;;;;;26.93;18.80;;;;;;;3.41;100.00;96169.25;5018655;28;20203;-87
2020/12/25 03:52:54;;;;;;;20.23;15.87;;;;;;;3.30;100.00;96164.06;5019070;28;20278;-89
2020/12/25 03:55:21;;;;;;;21.40;13.37;;;;;;;3.25;100.00;96166.16;5019193;28;20196;-90
2020/12/25 03:57:48;;;;;;;23.10;15.30;;;;;;;3.29;100.00;96162.38;5019031;28;20202;-88
2020/12/25 04:00:15;;;;;;;29.23;13.23;;;;;;;3.37;100.00;96159.22;5018937;28;20257;-89
2020/12/25 04:02:43;;;;;;;23.73;13.97;;;;;;;3.35;100.00;96167.13;5019423;28;20195;-89
2020/12/25 04:05:09;;;;;;;20.97;13.53;;;;;;;3.28;100.00;96171.13;5019257;28;20250;-89
2020/12/25 04:07:36;;;;;;;34.47;14.83;;;;;;;3.27;100.00;96165.09;5019135;28;20219;-89
2020/12/25 04:10:04;;;;;;;32.57;13.30;;;;;;;3.24;100.00;96169.72;5019237;28;20199;-90
2020/12/25 04:12:30;;;;;;;25.03;12.43;;;;;;;3.19;100.00;96171.84;5019005;28;20234;-89
2020/12/25 04:14:57;;;;;;;18.37;12.23;;;;;;;3.15;100.00;96166.03;5015736;28;20199;-90
2020/12/25 04:17:24;;;;;;;15.40;10.63;;;;;;;3.04;100.00;96158.22;5016037;28;20216;-89
2020/12/25 04:19:52;;;;;;;19.13;11.10;;;;;;;2.81;100.00;96150.38;5015814;28;20259;-90
2020/12/25 04:22:19;;;;;;;14.90;10.27;;;;;;;2.96;100.00;96150.19;5015634;28;20195;-88
2020/12/25 04:24:46;;;;;;;16.30;10.93;;;;;;;3.12;100.00;96155.03;5015886;28;20222;-90
2020/12/25 04:27:13;;;;;;;32.03;23.17;;;;;;;3.12;100.00;96152.44;5015679;28;20231;-91
2020/12/25 04:29:40;;;;;;;32.37;23.13;;;;;;;3.14;100.00;96160.97;5015580;28;20239;-87
2020/12/25 04:32:06;;;;;;;29.63;19.27;;;;;;;3.04;100.00;96159.03;5015621;28;20756;-88
2020/12/25 04:34:34;;;;;;;17.80;13.20;;;;;;;3.13;100.00;96159.31;5015165;28;20199;-89
2020/12/25 04:37:02;;;;;;;27.77;18.93;;;;;;;3.08;100.00;96150.09;5015040;28;20199;-88
2020/12/25 04:39:29;;;;;;;24.17;15.37;;;;;;;3.12;100.00;96152.44;5015084;28;20203;-93
2020/12/25 04:41:56;;;;;;;18.23;15.17;;;;;;;3.07;100.00;96151.03;5015225;28;20238;-92
2020/12/25 04:44:23;;;;;;;24.03;16.07;;;;;;;3.07;100.00;96151.03;5015264;28;20294;-88
2020/12/25 04:46:52;;;;;;;17.43;12.90;;;;;;;3.01;100.00;96161.88;5015499;28;20573;-88
2020/12/25 04:49:19;;;;;;;12.50;11.10;;;;;;;2.94;100.00;96154.66;5015737;28;20304;-93
2020/12/25 04:51:46;;;;;;;21.17;16.20;;;;;;;2.92;100.00;96161.75;5015616;28;20199;-91
2020/12/25 04:54:14;;;;;;;25.37;17.87;;;;;;;2.99;100.00;96157.75;5014900;28;20204;-88
2020/12/25 04:56:41;;;;;;;19.83;14.50;;;;;;;3.04;100.00;96163.41;5014998;28;20692;-91
2020/12/25 04:59:07;;;;;;;32.90;17.60;;;;;;;3.06;100.00;96162.34;5015015;28;20685;-94
2020/12/25 05:01:34;;;;;;;36.10;20.97;;;;;;;2.87;100.00;96154.28;5015237;28;20213;-92
2020/12/25 05:04:01;;;;;;;27.27;14.97;;;;;;;2.89;100.00;96155.00;5015221;28;20203;-92
2020/12/25 05:06:29;;;;;;;11.90;10.23;;;;;;;2.85;100.00;96153.59;5015099;28;20578;-89
2020/12/25 05:08:56;;;;;;;98.33;65.27;;;;;;;2.64;100.00;96150.81;5015057;28;20195;-92
2020/12/25 05:11:24;;;;;;;43.20;30.37;;;;;;;2.86;100.00;96158.66;5015635;28;20262;-90
2020/12/25 05:13:53;;;;;;;19.97;15.57;;;;;;;2.79;100.00;96156.63;5014678;28;20191;-90
2020/12/25 05:16:22;;;;;;;11.30;9.90;;;;;;;2.86;100.00;96144.84;5014759;28;20203;-91
2020/12/25 05:18:50;;;;;;;36.23;22.53;;;;;;;2.89;100.00;96157.59;5014992;28;20195;-93
2020/12/25 05:21:19;;;;;;;35.23;25.47;;;;;;;2.82;100.00;96167.59;5014945;28;20242;-90
2020/12/25 05:23:48;;;;;;;39.03;30.07;;;;;;;2.70;100.00;96171.13;5015201;28;20672;-90
2020/12/25 05:26:16;;;;;;;30.40;23.33;;;;;;;2.79;100.00;96172.19;5014707;28;20565;-89
2020/12/25 05:28:45;;;;;;;16.83;13.73;;;;;;;2.81;100.00;96168.56;5013919;28;20239;-89
2020/12/25 05:31:12;;;;;;;12.50;11.20;;;;;;;2.79;100.00;96161.81;5014755;28;20712;-94
2020/12/25 05:33:40;;;;;;;48.20;35.00;;;;;;;2.93;100.00;96166.81;5014908;28;20211;-94
2020/12/25 05:36:08;;;;;;;67.90;47.33;;;;;;;2.75;100.00;96173.38;5015527;28;20226;-92
2020/12/25 05:38:37;;;;;;;71.17;52.70;;;;;;;2.83;100.00;96173.63;5014985;28;20264;-90
2020/12/25 05:41:05;;;;;;;58.43;47.17;;;;;;;2.77;100.00;96177.50;5014440;28;20203;-92
2020/12/25 05:43:32;;;;;;;40.20;29.33;;;;;;;2.66;100.00;96181.81;5015222;28;20203;-89
2020/12/25 05:46:00;;;;;;;30.57;23.07;;;;;;;2.68;100.00;96187.72;5014284;28;20198;-91
2020/12/25 05:48:27;;;;;;;26.77;19.97;;;;;;;2.59;100.00;96184.84;5014071;28;20315;-92
2020/12/25 05:50:54;;;;;;;26.67;20.13;;;;;;;2.60;100.00;96181.34;5014192;28;20675;-92
2020/12/25 05:53:21;;;;;;;27.93;17.50;;;;;;;2.59;100.00;96186.63;5014236;28;20230;-89
2020/12/25 05:55:48;;;;;;;25.77;16.10;;;;;;;2.49;100.00;96180.44;5014531;28;20203;-95
2020/12/25 05:58:22;;;;;;;76.63;41.37;;;;;;;2.50;100.00;96193.31;5014166;28;20200;-94
2020/12/25 06:01:09;;;;;;;71.10;36.87;;;;;;;2.64;100.00;96197.50;5014282;28;20202;-91
2020/12/25 06:03:37;;;;;;;56.60;35.53;;;;;;;2.86;100.00;96200.19;5013552;28;20183;-90
2020/12/25 06:06:12;;;;;;;65.40;39.73;;;;;;;2.96;100.00;96207.31;5013414;28;20386;-89
2020/12/25 06:08:59;;;;;;;65.23;29.50;;;;;;;3.02;100.00;96207.69;5013381;28;20211;-92
2020/12/25 06:11:30;;;;;;;46.67;27.37;;;;;;;2.96;100.00;96205.53;5013816;28;20236;-89
2020/12/25 06:13:58;;;;;;;73.30;35.17;;;;;;;2.95;100.00;96206.47;5013833;28;20291;-95
2020/12/25 06:16:28;;;;;;;129.67;67.43;;;;;;;2.95;100.00;96201.28;5013650;28;20257;-90
2020/12/25 06:19:04;;;;;;;113.77;61.23;;;;;;;2.84;100.00;96191.69;5013616;28;20219;-91
2020/12/25 06:21:44;;;;;;;111.40;57.97;;;;;;;2.89;100.00;96196.53;5013721;28;20210;-89
2020/12/25 06:24:15;;;;;;;81.13;48.40;;;;;;;2.87;100.00;96195.81;5013498;28;20710;-89
2020/12/25 06:26:42;;;;;;;56.13;33.13;;;;;;;2.98;100.00;96198.47;5013516;28;20597;-89
2020/12/25 06:29:16;;;;;;;89.07;54.37;;;;;;;3.01;100.00;96198.25;5013127;28;20357;-90
2020/12/25 06:31:45;;;;;;;83.40;52.23;;;;;;;2.81;100.00;96198.88;5013606;28;20252;-90
2020/12/25 06:34:12;;;;;;;65.77;40.23;;;;;;;2.97;100.00;96194.19;5013514;28;20199;-91
2020/12/25 06:36:44;;;;;;;71.13;45.67;;;;;;;2.92;100.00;96193.72;5013006;28;20211;-87
2020/12/25 06:39:51;;;;;;;105.27;49.43;;;;;;;2.91;100.00;96204.19;5012009;28;20228;-89
2020/12/25 06:42:33;;;;;;;57.23;30.70;;;;;;;3.22;100.00;96205.34;5012381;28;20206;-89
2020/12/25 06:45:11;;;;;;;62.23;37.13;;;;;;;3.22;100.00;96206.19;4995412;28;20286;-92
2020/12/25 06:48:20;;;;;;;50.97;30.00;;;;;;;3.08;100.00;96217.63;5012874;28;20741;-88
2020/12/25 06:50:53;;;;;;;41.03;27.00;;;;;;;3.30;100.00;96216.00;4988394;28;20586;-88
2020/12/25 06:53:37;;;;;;;35.43;19.87;;;;;;;3.30;100.00;96210.81;5013332;28;20186;-91
2020/12/25 06:56:15;;;;;;;34.20;23.07;;;;;;;3.50;100.00;96204.94;5012827;28;20231;-89
2020/12/25 06:58:44;;;;;;;42.60;27.97;;;;;;;3.59;100.00;96213.78;5013022;28;20710;-89
2020/12/25 07:01:13;;;;;;;61.27;39.57;;;;;;;3.65;100.00;96215.09;5013730;28;20211;-93
2020/12/25 07:03:40;;;;;;;48.17;33.27;;;;;;;3.55;100.00;96209.78;5014868;28;20266;-93
2020/12/25 07:06:10;;;;;;;68.30;51.03;;;;;;;3.55;100.00;96205.41;5013242;28;20199;-95
2020/12/25 07:08:48;;;;;;;65.20;43.67;;;;;;;3.68;100.00;96214.88;5014024;28;20250;-90
2020/12/25 07:11:20;;;;;;;45.37;34.27;;;;;;;3.79;100.00;96207.06;5013394;28;20183;-91
2020/12/25 07:13:47;;;;;;;38.70;28.03;;;;;;;3.80;100.00;96209.53;5012570;28;20203;-93
2020/12/25 07:16:14;;;;;;;29.60;24.03;;;;;;;3.97;100.00;96216.03;5013406;28;20227;-92
2020/12/25 07:18:41;;;;;;;30.50;23.37;;;;;;;4.03;100.00;96204.34;5012902;28;20227;-92
2020/12/25 07:21:09;;;;;;;45.43;40.27;;;;;;;4.12;100.00;96202.78;5012645;28;20338;-90
2020/12/25 07:23:43;;;;;;;51.50;37.23;;;;;;;4.15;100.00;96207.75;5012189;28;20195;-91
2020/12/25 07:26:10;;;;;;;41.77;32.50;;;;;;;4.10;100.00;96200.31;5013373;28;20275;-90
2020/12/25 07:28:37;;;;;;;75.53;54.93;;;;;;;3.91;100.00;96206.09;5007068;28;20630;-90
2020/12/25 07:31:04;;;;;;;94.90;59.77;;;;;;;4.04;100.00;96212.00;4993221;28;20230;-89
2020/12/25 07:33:31;;;;;;;65.40;47.60;;;;;;;4.05;100.00;96202.44;4993093;28;20700;-90
2020/12/25 07:35:58;;;;;;;60.40;46.20;;;;;;;4.13;100.00;96200.09;4993539;28;20220;-89
2020/12/25 07:38:26;;;;;;;38.83;31.83;;;;;;;4.25;100.00;96198.28;5006916;28;20198;-91
2020/12/25 07:40:53;;;;;;;34.70;26.70;;;;;;;4.28;100.00;96200.63;5012701;28;20681;-90
2020/12/25 07:43:20;;;;;;;29.87;22.97;;;;;;;4.51;100.00;96210.06;5013050;28;20203;-88
2020/12/25 07:45:47;;;;;;;26.73;23.80;;;;;;;4.50;100.00;96215.38;5000077;28;20235;-89
2020/12/25 07:48:14;;;;;;;81.03;62.60;;;;;;;4.76;100.00;96211.50;4994084;28;20231;-93
2020/12/25 07:50:44;;;;;;;43.67;37.80;;;;;;;4.53;100.00;96217.72;4996885;28;20260;-88
2020/12/25 07:53:44;;;;;;;49.20;39.03;;;;;;;4.64;100.00;96220.31;4996435;28;20196;-89
2020/12/25 07:56:13;;;;;;;67.70;48.63;;;;;;;4.67;100.00;96214.00;4997039;28;20243;-90
2020/12/25 07:58:41;;;;;;;76.27;53.27;;;;;;;4.76;100.00;96219.31;4997053;28;20200;-89
2020/12/25 08:01:08;;;;;;;51.23;43.10;;;;;;;4.63;100.00;96216.03;4996838;28;20200;-90
2020/12/25 08:03:36;;;;;;;60.23;46.00;;;;;;;4.61;100.00;96217.97;4995492;28;20200;-90
2020/12/25 08:06:02;;;;;;;60.50;46.23;;;;;;;4.69;100.00;96218.16;5014393;28;20753;-93
2020/12/25 08:08:36;;;;;;;71.40;50.73;;;;;;;4.81;100.00;96216.31;5014589;28;20259;-88
2020/12/25 08:11:03;;;;;;;55.40;43.20;;;;;;;4.75;100.00;96224.66;5007922;28;20201;-91
2020/12/25 08:13:33;;;;;;;57.27;43.03;;;;;;;4.61;100.00;96225.75;4997716;28;20583;-91
2020/12/25 08:16:00;;;;;;;57.43;45.10;;;;;;;4.76;100.00;96221.09;4996599;28;20185;-92
2020/12/25 08:18:30;;;;;;;71.57;57.00;;;;;;;4.88;100.00;96227.06;4996294;28;20219;-91
2020/12/25 08:20:58;;;;;;;53.33;45.00;;;;;;;4.85;100.00;96228.19;4996155;28;20211;-92
2020/12/25 08:26:08;;;;;;;29.17;24.30;;;;;;;5.00;100.00;96228.69;4996878;28;20208;-91
2020/12/25 08:28:36;;;;;;;56.93;40.87;;;;;;;5.20;100.00;96224.47;4996072;28;20236;-91
2020/12/25 08:31:14;;;;;;;52.43;41.60;;;;;;;5.39;100.00;96219.38;4998175;28;20200;-89
2020/12/25 08:33:41;;;;;;;48.77;39.63;;;;;;;5.44;100.00;96219.00;4995034;28;20271;-92
2020/12/25 08:36:10;;;;;;;68.63;55.07;;;;;;;5.53;100.00;96214.78;4996633;28;20242;-92
2020/12/25 08:38:46;;;;;;;58.13;46.47;;;;;;;5.72;100.00;96218.31;4997186;28;20207;-91
2020/12/25 08:41:14;;;;;;;64.67;53.93;;;;;;;5.82;100.00;96228.81;4996685;28;20204;-89
2020/12/25 08:43:43;;;;;;;44.23;38.43;;;;;;;5.77;100.00;96225.75;5420450;23;20238;-90
2020/12/25 08:46:10;;;;;;;37.00;30.07;;;;;;;5.67;100.00;96219.66;5041957;28;20219;-91
2020/12/25 08:48:49;;;;;;;36.60;29.37;;;;;;;5.57;100.00;96224.00;5038699;28;20227;-91
2020/12/25 08:51:22;;;;;;;32.87;27.40;;;;;;;5.61;100.00;96225.38;5040606;28;20202;-92
2020/12/25 08:53:51;;;;;;;42.03;34.83;;;;;;;5.67;100.00;96222.25;5040046;28;20195;-89
2020/12/25 08:56:19;;;;;;;42.67;35.07;;;;;;;5.72;100.00;96223.53;5033493;28;20675;-95
2020/12/25 08:58:57;;;;;;;38.17;32.37;;;;;;;5.85;100.00;96212.88;5033050;28;20209;-91
2020/12/25 09:01:24;;;;;;;44.33;33.13;;;;;;;5.92;100.00;96206.25;5032703;28;20203;-90
2020/12/25 09:03:51;;;;;;;45.53;36.10;;;;;;;6.09;100.00;96201.34;5033382;28;20268;-90
2020/12/25 09:06:18;;;;;;;48.97;41.47;;;;;;;6.26;100.00;96202.47;5034289;28;20198;-92
2020/12/25 09:08:46;;;;;;;59.07;49.80;;;;;;;6.37;100.00;96205.81;5034523;28;20223;-95
2020/12/25 09:11:14;;;;;;;63.27;54.07;;;;;;;6.43;100.00;96191.41;5034908;28;20372;-91
2020/12/25 09:13:42;;;;;;;76.77;68.67;;;;;;;6.39;100.00;96193.44;5034863;28;20210;-91
2020/12/25 09:16:10;;;;;;;67.73;56.67;;;;;;;6.52;100.00;96180.16;5034978;28;20202;-91
2020/12/25 09:18:38;;;;;;;55.53;45.43;;;;;;;6.57;100.00;96180.56;5034716;28;20210;-90
2020/12/25 09:21:07;;;;;;;44.97;40.17;;;;;;;6.54;100.00;96177.38;5034854;28;20222;-90
2020/12/25 09:23:34;;;;;;;49.77;42.17;;;;;;;6.81;100.00;96174.94;5034359;28;20223;-93
2020/12/25 09:26:01;;;;;;;46.23;41.30;;;;;;;7.02;100.00;96171.34;5035129;28;20213;-91
2020/12/25 09:28:28;;;;;;;44.80;39.87;;;;;;;7.21;100.00;96166.13;5033886;28;20226;-92
2020/12/25 09:30:55;;;;;;;54.37;46.47;;;;;;;7.52;100.00;96148.44;5034723;28;20198;-90
2020/12/25 09:33:24;;;;;;;54.00;45.80;;;;;;;7.59;100.00;96149.50;5034420;28;20202;-90
2020/12/25 09:35:51;;;;;;;52.40;43.00;;;;;;;8.11;100.00;96159.47;5034328;28;20198;-90
2020/12/25 09:38:19;;;;;;;47.37;37.60;;;;;;;8.32;100.00;96162.66;5034080;28;20284;-89
2020/12/25 09:40:48;;;;;;;45.47;34.83;;;;;;;8.53;100.00;96158.97;5034367;28;20199;-88
2020/12/25 09:43:15;;;;;;;34.40;29.97;;;;;;;8.91;100.00;96152.63;5034088;28;20235;-90
2020/12/25 09:45:42;;;;;;;39.07;32.57;;;;;;;9.04;100.00;96141.75;5034944;28;20256;-90
2020/12/25 09:48:08;;;;;;;41.47;35.47;;;;;;;9.17;100.00;96133.47;5034081;28;20249;-91
2020/12/25 09:50:36;;;;;;;47.73;38.00;;;;;;;9.32;100.00;96121.47;5034121;28;20694;-90
2020/12/25 09:53:03;;;;;;;35.03;28.37;;;;;;;9.21;100.00;96116.44;5034410;28;20210;-91
2020/12/25 09:55:35;;;;;;;38.23;30.67;;;;;;;9.21;100.00;96112.06;5034360;28;20705;-90
2020/12/25 09:58:02;;;;;;;34.37;26.47;;;;;;;9.48;100.00;96108.41;5033739;28;20190;-91
2020/12/25 10:00:29;;;;;;;28.83;24.37;;;;;;;9.42;100.00;96109.06;5033874;28;20230;-92
2020/12/25 10:02:56;;;;;;;25.73;21.40;;;;;;;9.27;100.00;96108.78;5034472;28;20664;-95
2020/12/25 10:05:23;;;;;;;27.87;21.30;;;;;;;9.46;100.00;96092.03;5034149;28;20229;-91
2020/12/25 10:07:52;;;;;;;27.93;25.00;;;;;;;9.57;100.00;96095.38;5034212;28;20269;-90
2020/12/25 10:10:21;;;;;;;33.97;29.37;;;;;;;9.77;100.00;96092.34;5033599;28;20198;-90
2020/12/25 10:12:57;;;;;;;28.23;24.77;;;;;;;9.98;100.00;96094.56;5019313;28;20646;-90
2020/12/25 10:15:27;;;;;;;18.53;15.60;;;;;;;9.77;100.00;96092.34;5022034;28;20214;-90
2020/12/25 10:17:57;;;;;;;27.77;18.83;;;;;;;9.88;100.00;96095.66;5031388;28;20194;-91
2020/12/25 10:20:24;;;;;;;26.77;22.17;;;;;;;9.97;100.00;96090.25;5031224;28;20304;-90
2020/12/25 10:22:51;;;;;;;24.00;19.37;;;;;;;10.07;100.00;96078.81;5030755;28;20261;-91
2020/12/25 10:25:33;;;;;;;20.27;16.90;;;;;;;10.20;100.00;96069.50;5030810;28;20195;-91
2020/12/25 10:28:03;;;;;;;27.97;22.03;;;;;;;10.17;100.00;96077.69;5030685;28;20218;-90
2020/12/25 10:30:30;;;;;;;23.67;19.70;;;;;;;10.26;100.00;96072.50;5031050;28;20201;-91
2020/12/25 10:32:58;;;;;;;25.40;21.40;;;;;;;10.42;100.00;96064.63;5030808;28;21027;-91
2020/12/25 10:35:25;;;;;;;20.43;16.40;;;;;;;10.46;100.00;96061.53;5012758;28;20201;-90
2020/12/25 10:37:54;;;;;;;18.70;16.73;;;;;;;10.52;100.00;96057.41;5030881;28;20201;-91
2020/12/25 10:40:23;;;;;;;23.97;18.47;;;;;;;10.54;100.00;96046.75;5011789;28;20274;-92
2020/12/25 10:42:52;;;;;;;20.63;18.30;;;;;;;10.62;100.00;96044.13;5029284;28;20267;-92
2020/12/25 10:45:20;;;;;;;54.60;44.83;;;;;;;10.50;100.00;96029.69;4989778;28;20204;-91
2020/12/25 10:48:00;;;;;;;21.80;18.77;;;;;;;10.34;100.00;96027.84;4990824;28;20246;-92
2020/12/25 10:50:33;;;;;;;24.90;18.43;;;;;;;10.36;100.00;96020.63;4991198;28;20215;-92
2020/12/25 10:53:32;;;;;;;18.83;16.07;;;;;;;10.13;100.00;96023.84;4991218;28;20674;-90
2020/12/25 10:58:47;;;;;;;29.67;22.37;;;;;;;10.13;100.00;96025.66;4989789;28;20290;-90
2020/12/25 11:01:21;;;;;;;54.83;37.67;;;;;;;10.09;100.00;96024.34;4991271;28;20681;-90
2020/12/25 11:03:59;;;;;;;30.87;23.57;;;;;;;9.89;100.00;96019.38;4991091;28;20184;-90
2020/12/25 11:06:34;;;;;;;19.50;17.20;;;;;;;9.89;100.00;96031.69;4989999;28;20210;-90
2020/12/25 11:09:10;;;;;;;23.80;18.83;;;;;;;9.86;100.00;96029.38;4990557;28;20306;-90
2020/12/25 11:11:39;;;;;;;21.33;19.03;;;;;;;9.79;100.00;96020.50;4993156;28;20290;-89
2020/12/25 11:14:07;;;;;;;24.93;20.13;;;;;;;9.78;100.00;96024.91;4994753;28;20200;-89
2020/12/25 11:16:36;;;;;;;25.73;20.43;;;;;;;9.77;100.00;96025.91;4992789;28;20239;-90
2020/12/25 11:19:04;;;;;;;28.60;22.97;;;;;;;9.90;100.00;96026.25;4993058;28;20211;-91
2020/12/25 11:21:32;;;;;;;29.73;23.47;;;;;;;9.82;100.00;96023.63;4996401;28;20366;-90
2020/12/25 11:24:05;;;;;;;30.03;22.47;;;;;;;9.86;100.00;96019.69;5001844;28;20288;-93
2020/12/25 11:29:55;;;;;;;31.63;24.27;;;;;;;9.76;100.00;96014.56;4921818;28;20210;-91
2020/12/25 11:32:29;;;;;;;34.67;26.00;;;;;;;9.80;100.00;96015.06;4981800;28;20578;-91
2020/12/25 11:34:55;;;;;;;45.47;31.33;;;;;;;9.99;100.00;96016.59;4977941;28;20672;-90
2020/12/25 11:37:22;;;;;;;47.37;32.20;;;;;;;9.93;100.00;96015.44;4977735;28;20192;-93
2020/12/25 11:39:49;;;;;;;33.93;26.07;;;;;;;9.96;100.00;96011.69;4977456;28;20264;-90
2020/12/25 11:42:17;;;;;;;66.67;51.00;;;;;;;9.95;100.00;96005.59;4976871;28;20200;-89